Flight Track Log - Related Links

Times and Time Zones

All times are in EDT time to prevent confusion due to time zone crossing. See the SWA407 flight status page for this flight to view local times or setup timezone preferences in your user account.


Time Position Orientation Groundspeed Altitude Reporting Facility
EDT Latitude Longitude Course Direction KTS MPH feet Rate Location/Type
Wed 05:22:53 PM 33.6494 -84.4781 270° West 445 512 2,700  Level Atlanta Center
Wed 05:23:53 PM 33.6617 -84.5431 283° West 337 388 4,800 2,550 Climbing Atlanta Center
Wed 05:24:13 PM 33.6667 -84.5833 278° West 245 282 6,100 3,405 Climbing Atlanta TRACON
Wed 05:25:07 PM 33.6833 -84.6500 287° West 248 285 9,000 2,738 Climbing Atlanta TRACON
Wed 05:26:53 PM 33.7064 -84.7981 281° West 293 337 13,400 2,530 Climbing Atlanta Center
Wed 05:27:53 PM 33.7203 -84.9128 278° West 305 351 16,000 2,500 Climbing Atlanta Center
Wed 05:28:00 PM 33.8000 -84.6499 270° West  Level FlightAware Approximate
Wed 05:28:53 PM 33.7361 -85.0156 281° West 315 362 18,400  Level Atlanta Center
Wed 05:29:53 PM 33.7519 -85.1256 280° West 327 376 21,000 2,200 Climbing Atlanta Center
Wed 05:30:53 PM 33.7697 -85.2383 281° West 340 391 22,800 1,400 Climbing Atlanta Center
Wed 05:31:53 PM 33.7914 -85.3636 282° West 366 421 23,800 1,300 Climbing Atlanta Center
Wed 05:32:53 PM 33.8128 -85.4889 282° West 392 451 25,400 1,700 Climbing Atlanta Center
Wed 05:33:53 PM 33.8342 -85.6194 281° West 398 458 27,200 1,750 Climbing Atlanta Center
Wed 05:34:53 PM 33.8722 -85.7500 289° West 398 458 28,900 1,500 Climbing Atlanta Center
Wed 05:35:53 PM 33.9039 -85.8558 290° West 397 457 30,200 1,450 Climbing Atlanta Center
Wed 05:36:53 PM 33.9458 -85.9819 292° West 397 457 31,800 900 Climbing Atlanta Center
Wed 05:37:53 PM 33.9836 -86.1081 290° West 397 457 32,000 550 Climbing Atlanta Center
Wed 05:38:53 PM 34.0189 -86.2342 289° West 397 457 32,900 1,200 Climbing Atlanta Center
Wed 05:39:53 PM 34.0542 -86.3556 289° West 392 451 34,400 1,350 Climbing Atlanta Center
Wed 05:40:53 PM 34.0894 -86.4769 289° West 387 445 35,600 800 Climbing Atlanta Center
Wed 05:41:53 PM 34.1225 -86.6008 288° West 387 445 36,000 200 Climbing Atlanta Center
Wed 05:42:53 PM 34.1575 -86.7222 289° West 387 445 36,000  Level Atlanta Center
Wed 05:45:09 PM 34.2383 -87.0206 288° West 385 443 36,000  Level Memphis Center
Wed 05:46:09 PM 34.2731 -87.1475 288° West 390 449 36,000  Level Memphis Center
Wed 05:47:09 PM 34.3008 -87.2519 288° West 385 443 36,000  Level Memphis Center
Wed 05:48:09 PM 34.3372 -87.3814 289° West 385 443 36,000  Level Memphis Center
Wed 05:49:09 PM 34.3694 -87.5036 288° West 385 443 36,000  Level Memphis Center
Wed 05:50:10 PM 34.4033 -87.6258 289° West 385 443 36,000  Level Memphis Center
Wed 05:51:10 PM 34.4394 -87.7431 291° West 375 432 36,000  Level Memphis Center
Wed 05:52:09 PM 34.4689 -87.8631 287° West 368 423 36,000  Level Memphis Center
Wed 05:53:09 PM 34.5025 -87.9831 289° West 368 423 36,000  Level Memphis Center
Wed 05:54:09 PM 34.5342 -88.1133 286° West 368 423 36,000  Level Memphis Center
Wed 05:55:09 PM 34.5633 -88.2236 288° West 374 430 36,000  Level Memphis Center
Wed 05:56:09 PM 34.5944 -88.3439 287° West 380 437 36,000  Level Memphis Center
Wed 05:57:09 PM 34.6256 -88.4592 288° West 375 432 36,000  Level Memphis Center
Wed 05:58:09 PM 34.6586 -88.5847 288° West 364 419 36,000  Level Memphis Center
Wed 05:59:09 PM 34.6894 -88.7028 288° West 364 419 36,000  Level Memphis Center
Wed 06:00:09 PM 34.7203 -88.8208 288° West 364 419 36,000  Level Memphis Center
Wed 06:01:09 PM 34.7508 -88.9417 287° West 364 419 36,000  Level Memphis Center
Wed 06:02:10 PM 34.7814 -89.0600 287° West 364 419 36,000  Level Memphis Center
Wed 06:03:09 PM 34.8139 -89.1783 289° West 364 419 36,000  Level Memphis Center
Wed 06:04:09 PM 34.8400 -89.2842 287° West 364 419 36,000  Level Memphis Center
Wed 06:05:09 PM 34.8700 -89.4028 287° West 364 419 36,000  Level Memphis Center
Wed 06:06:09 PM 34.9003 -89.5189 288° West 364 419 36,000  Level Memphis Center
Wed 06:07:09 PM 34.9342 -89.6378 289° West 364 419 36,000  Level Memphis Center
Wed 06:08:09 PM 34.9581 -89.7717 282° West 364 419 36,000  Level Memphis Center
Wed 06:09:09 PM 34.9981 -89.8958 291° West 385 443 36,000  Level Memphis Center
Wed 06:10:09 PM 35.0236 -90.0047 286° West 373 429 36,000  Level Memphis Center
Wed 06:11:09 PM 35.0592 -90.1211 290° West 367 422 36,000  Level Memphis Center
Wed 06:12:09 PM 35.0969 -90.2353 292° West 367 422 36,000  Level Memphis Center
Wed 06:13:09 PM 35.1347 -90.3544 291° West 367 422 36,000  Level Memphis Center
Wed 06:14:09 PM 35.1722 -90.4714 291° West 372 428 36,000  Level Memphis Center
Wed 06:15:09 PM 35.2094 -90.5908 291° West 372 428 36,000  Level Memphis Center
Wed 06:16:09 PM 35.2447 -90.7081 290° West 367 422 36,000  Level Memphis Center
Wed 06:17:09 PM 35.2861 -90.8353 292° West 373 429 36,000  Level Memphis Center
Wed 06:18:09 PM 35.3208 -90.9575 289° West 367 422 36,000  Level Memphis Center
Wed 06:19:09 PM 35.3578 -91.0725 292° West 374 430 36,000  Level Memphis Center
Wed 06:20:09 PM 35.3925 -91.1872 290° West 365 420 36,000  Level Memphis Center
Wed 06:21:09 PM 35.4314 -91.3075 292° West 365 420 36,000  Level Memphis Center
Wed 06:22:09 PM 35.4658 -91.4225 290° West 371 427 36,000  Level Memphis Center
Wed 06:23:09 PM 35.4983 -91.5378 289° West 365 420 36,000  Level Memphis Center
Wed 06:24:09 PM 35.5347 -91.6556 291° West 365 420 36,000  Level Memphis Center
Wed 06:25:09 PM 35.5689 -91.7711 290° West 365 420 36,000  Level Memphis Center
Wed 06:26:09 PM 35.6031 -91.8867 290° West 365 420 36,000  Level Memphis Center
Wed 06:27:09 PM 35.6389 -92.0047 291° West 365 420 36,000  Level Memphis Center
Wed 06:28:09 PM 35.6728 -92.1203 290° West 365 420 36,000  Level Memphis Center
Wed 06:29:09 PM 35.7086 -92.2361 291° West 365 420 36,000  Level Memphis Center
Wed 06:30:09 PM 35.7403 -92.3494 289° West 365 420 36,000  Level Memphis Center
Wed 06:31:09 PM 35.7761 -92.4653 291° West 365 420 36,000  Level Memphis Center
Wed 06:32:09 PM 35.8072 -92.5814 288° West 365 420 36,000  Level Memphis Center
Wed 06:33:09 PM 35.8428 -92.6950 291° West 365 420 36,000  Level Memphis Center
Wed 06:34:09 PM 35.8739 -92.8111 288° West 365 420 36,000  Level Memphis Center
Wed 06:35:09 PM 35.9092 -92.9250 291° West 365 420 36,000  Level Memphis Center
Wed 06:36:09 PM 35.9383 -93.0283 289° West 365 420 36,000  Level Memphis Center
Wed 06:37:09 PM 35.9692 -93.1450 288° West 365 420 36,000  Level Memphis Center
Wed 06:38:09 PM 36.0039 -93.2589 291° West 365 420 36,000  Level Memphis Center
Wed 06:39:09 PM 36.0367 -93.3706 290° West 360 414 36,000  Level Memphis Center
Wed 06:40:09 PM 36.0672 -93.4847 288° West 360 414 36,000  Level Memphis Center
Wed 06:41:09 PM 36.0978 -93.5961 289° West 350 403 36,000  Level Memphis Center
Wed 06:42:09 PM 36.1303 -93.7081 290° West 350 403 36,000  Level Memphis Center
Wed 06:43:09 PM 36.1608 -93.8172 289° West 350 403 36,000  Level Memphis Center
Wed 06:44:09 PM 36.1906 -93.9419 286° West 350 403 36,000  Level Memphis Center
Wed 06:45:09 PM 36.2208 -94.0511 289° West 350 403 36,000  Level Memphis Center
Wed 06:47:37 PM 36.3067 -94.3117 292° West 338 389 36,000  Level Kansas City Center
Wed 06:48:38 PM 36.3417 -94.4192 292° West 336 387 36,000  Level Kansas City Center
Wed 06:49:41 PM 36.3756 -94.5281 291° West 337 388 36,000  Level Kansas City Center
Wed 06:50:45 PM 36.4092 -94.6358 291° West 335 386 36,000  Level Kansas City Center
Wed 06:51:45 PM 36.4428 -94.7436 291° West 335 386 36,000  Level Kansas City Center
Wed 06:52:49 PM 36.4836 -94.8725 292° West 334 384 36,000  Level Kansas City Center
Wed 06:53:50 PM 36.5167 -94.9792 291° West 332 382 36,000  Level Kansas City Center
Wed 06:54:51 PM 36.5506 -95.0853 292° West 332 382 36,000  Level Kansas City Center
Wed 06:55:55 PM 36.5808 -95.1853 291° West 330 380 36,000  Level Kansas City Center
Wed 06:56:55 PM 36.6158 -95.2969 291° West 331 381 36,000  Level Kansas City Center
Wed 06:57:59 PM 36.6550 -95.4242 291° West 331 381 36,000  Level Kansas City Center
Wed 06:58:59 PM 36.6872 -95.5300 291° West 330 380 36,000  Level Kansas City Center
Wed 07:00:03 PM 36.7197 -95.6364 291° West 330 380 36,000  Level Kansas City Center
Wed 07:01:04 PM 36.7528 -95.7444 291° West 333 383 36,000  Level Kansas City Center
Wed 07:02:05 PM 36.7844 -95.8503 291° West 329 379 36,000  Level Kansas City Center
Wed 07:03:09 PM 36.8172 -95.9603 290° West 334 384 36,000  Level Kansas City Center
Wed 07:04:10 PM 36.8497 -96.0903 287° West 331 381 36,000  Level Kansas City Center
Wed 07:05:11 PM 36.8742 -96.2008 285° West 333 383 36,000  Level Kansas City Center
Wed 07:06:15 PM 36.8975 -96.3119 285° West 331 381 36,000  Level Kansas City Center
Wed 07:07:16 PM 36.9194 -96.4211 284° West 327 376 36,000  Level Kansas City Center
Wed 07:08:19 PM 36.9431 -96.5319 285° West 329 379 36,000  Level Kansas City Center
Wed 07:09:20 PM 36.9672 -96.6428 285° West 330 380 36,000  Level Kansas City Center
Wed 07:10:21 PM 36.9931 -96.7717 284° West 330 380 36,000  Level Kansas City Center
Wed 07:11:25 PM 37.0161 -96.8833 285° West 331 381 36,000  Level Kansas City Center
Wed 07:12:26 PM 37.0378 -96.9950 284° West 331 381 36,000  Level Kansas City Center
Wed 07:13:29 PM 37.0619 -97.1053 285° West 330 380 36,000  Level Kansas City Center
Wed 07:14:31 PM 37.0825 -97.2192 283° West 333 383 36,000  Level Kansas City Center
Wed 07:15:32 PM 37.1053 -97.3314 284° West 332 382 36,000  Level Kansas City Center
Wed 07:16:35 PM 37.1222 -97.4669 279° West 330 380 36,000  Level Kansas City Center
Wed 07:17:36 PM 37.1369 -97.5800 279° West 330 380 36,000  Level Kansas City Center
Wed 07:18:39 PM 37.1511 -97.6900 279° West 322 371 36,000  Level Kansas City Center
Wed 07:19:40 PM 37.1658 -97.8003 280° West 320 368 36,000  Level Kansas City Center
Wed 07:20:44 PM 37.1794 -97.9111 279° West 321 369 36,000  Level Kansas City Center
Wed 07:21:44 PM 37.1931 -98.0200 279° West 318 366 36,000  Level Kansas City Center
Wed 07:22:48 PM 37.2067 -98.1317 279° West 320 368 36,000  Level Kansas City Center
Wed 07:23:49 PM 37.2239 -98.2639 279° West 320 368 36,000  Level Kansas City Center
Wed 07:24:50 PM 37.2375 -98.3764 279° West 322 371 36,000  Level Kansas City Center
Wed 07:25:51 PM 37.2503 -98.4886 278° West 324 373 36,000  Level Kansas City Center
Wed 07:26:56 PM 37.2633 -98.5994 278° West 322 371 36,000  Level Kansas City Center
Wed 07:27:56 PM 37.2775 -98.7111 279° West 322 371 36,000  Level Kansas City Center
Wed 07:28:57 PM 37.2908 -98.8203 279° West 320 368 36,000  Level Kansas City Center
Wed 07:30:01 PM 37.3031 -98.9303 278° West 318 366 36,000  Level Kansas City Center
Wed 07:31:01 PM 37.3194 -99.0650 279° West 322 371 36,000  Level Kansas City Center
Wed 07:32:05 PM 37.3319 -99.1764 278° West 323 372 36,000  Level Kansas City Center
Wed 07:33:06 PM 37.3456 -99.2878 279° West 323 372 36,000  Level Kansas City Center
Wed 07:34:07 PM 37.3581 -99.3986 278° West 321 369 36,000  Level Kansas City Center
Wed 07:35:11 PM 37.3725 -99.5178 279° West 322 371 36,000  Level Kansas City Center
Wed 07:36:12 PM 37.3833 -99.6250 277° West 323 372 36,000  Level Kansas City Center
Wed 07:37:13 PM 37.3975 -99.7511 278° West 324 373 36,000  Level Kansas City Center
Wed 07:38:17 PM 37.4100 -99.8567 279° West 322 371 36,000  Level Kansas City Center
Wed 07:39:17 PM 37.4228 -99.9819 277° West 323 372 36,000  Level Kansas City Center
Wed 07:40:18 PM 37.4342 -100.0900 278° West 324 373 36,000  Level Kansas City Center
Wed 07:41:22 PM 37.4492 -100.2169 279° West 328 377 36,000  Level Kansas City Center
Wed 07:42:23 PM 37.4600 -100.3244 277° West 325 374 36,000 246 Level Kansas City Center
Wed 07:43:24 PM 37.4739 -100.4511 278° West 326 375 36,500 672 Climbing Kansas City Center
Wed 07:44:28 PM 37.4850 -100.5581 277° West 323 372 37,400 720 Climbing Kansas City Center
Wed 07:45:29 PM 37.4964 -100.6675 278° West 326 375 38,000 295 Climbing Kansas City Center
Wed 07:46:30 PM 37.5086 -100.7972 277° West 331 381 38,000  Level Kansas City Center
Wed 07:47:31 PM 37.5192 -100.9019 277° West 335 386 38,000  Level Kansas City Center
Wed 07:48:34 PM 37.5311 -101.0189 277° West 336 387 38,000  Level Kansas City Center
Wed 07:49:35 PM 37.5447 -101.1547 277° West 334 384 38,000  Level Kansas City Center
Wed 07:50:39 PM 37.5553 -101.2667 277° West 335 386 38,000  Level Kansas City Center
Wed 07:51:40 PM 37.5672 -101.3964 277° West 334 384 38,000  Level Kansas City Center
Wed 07:52:41 PM 37.5786 -101.5064 277° West 332 382 38,000  Level Kansas City Center
Wed 07:53:42 PM 37.5908 -101.6372 277° West 334 384 38,000  Level Kansas City Center
Wed 07:54:43 PM 37.6011 -101.7478 277° West 333 383 38,000  Level Kansas City Center
Wed 07:55:47 PM 37.6125 -101.8608 277° West 337 388 38,000  Level Kansas City Center
Wed 07:56:47 PM 37.6244 -101.9931 277° West 339 390 38,000  Level Kansas City Center
Wed 07:57:36 PM 37.6339 -102.0894 277° West 345 397 38,000  Level Denver Center
Wed 07:58:38 PM 37.6458 -102.2219 277° West 341 392 38,000  Level Denver Center
Wed 07:59:42 PM 37.6561 -102.3353 277° West 340 391 38,000  Level Denver Center
Wed 08:00:44 PM 37.6678 -102.4639 277° West 333 383 38,000  Level Denver Center
Wed 08:01:46 PM 37.6769 -102.5742 276° West 331 381 38,000  Level Denver Center
Wed 08:02:48 PM 37.6894 -102.7031 277° West 331 381 38,000  Level Denver Center
Wed 08:03:50 PM 37.6978 -102.8161 275° West 336 387 38,000  Level Denver Center
Wed 08:04:52 PM 37.7086 -102.9444 276° West 331 381 38,000  Level Denver Center
Wed 08:05:54 PM 37.7325 -103.0539 285° West 342 394 38,000  Level Denver Center
Wed 08:06:57 PM 37.7767 -103.1708 296° West 348 400 38,000  Level Denver Center
Wed 08:07:59 PM 37.8200 -103.2819 296° West 349 402 38,000  Level Denver Center
Wed 08:09:00 PM 37.8525 -103.3767 294° West 350 403 38,000  Level Denver Center
Wed 08:10:03 PM 37.8603 -103.5186 274° West 345 397 38,000  Level Denver Center
Wed 08:11:05 PM 37.8708 -103.6397 276° West 343 395 38,000  Level Denver Center
Wed 08:12:07 PM 37.8797 -103.7781 275° West 337 388 38,000  Level Denver Center
Wed 08:13:09 PM 37.8875 -103.8986 275° West 338 389 38,000  Level Denver Center
Wed 08:14:11 PM 37.8950 -104.0186 275° West 339 390 38,000  Level Denver Center
Wed 08:15:13 PM 37.9039 -104.1375 275° West 337 388 38,000  Level Denver Center
Wed 08:16:15 PM 37.9117 -104.2564 275° West 336 387 38,000  Level Denver Center
Wed 08:17:17 PM 37.9183 -104.3758 274° West 336 387 38,000  Level Denver Center
Wed 08:18:19 PM 37.9261 -104.4925 275° West 332 382 38,000  Level Denver Center
Wed 08:19:21 PM 37.9333 -104.6078 275° West 326 375 38,000  Level Denver Center
Wed 08:20:23 PM 37.9408 -104.7444 274° West 329 379 38,000  Level Denver Center
Wed 08:21:25 PM 37.9472 -104.8597 274° West 327 376 38,000  Level Denver Center
Wed 08:22:27 PM 37.9547 -104.9761 275° West 327 376 38,000  Level Denver Center
Wed 08:23:29 PM 37.9617 -105.0939 274° West 330 380 38,000  Level Denver Center
Wed 08:24:31 PM 37.9675 -105.2147 274° West 337 388 38,000  Level Denver Center
Wed 08:25:46 PM 37.9761 -105.3525 275° West 334 384 38,000  Level Denver Center
Wed 08:26:48 PM 37.9839 -105.4917 274° West 335 386 38,000  Level Denver Center
Wed 08:27:50 PM 37.9900 -105.6128 274° West 338 389 38,000  Level Denver Center
Wed 08:28:52 PM 37.9958 -105.7333 274° West 340 391 38,000  Level Denver Center
Wed 08:29:54 PM 38.0014 -105.8531 273° West 338 389 38,000  Level Denver Center
Wed 08:30:55 PM 38.0083 -105.9739 274° West 340 391 38,000  Level Denver Center
Wed 08:31:57 PM 38.0136 -106.0947 273° West 339 390 38,000  Level Denver Center
Wed 08:32:59 PM 38.0203 -106.2211 274° West 339 390 38,000  Level Denver Center
Wed 08:34:01 PM 38.0261 -106.3350 274° West 338 389 38,000  Level Denver Center
Wed 08:35:03 PM 38.0317 -106.4672 273° West 339 390 38,000  Level Denver Center
Wed 08:36:05 PM 38.0369 -106.5836 273° West 335 386 38,000  Level Denver Center
Wed 08:37:07 PM 38.0419 -106.7156 273° West 336 387 38,000  Level Denver Center
Wed 08:38:09 PM 38.0475 -106.8300 274° West 340 391 38,000  Level Denver Center
Wed 08:39:11 PM 38.0531 -106.9658 273° West 345 397 38,000  Level Denver Center
Wed 08:40:12 PM 38.0578 -107.0803 273° West 341 392 38,000  Level Denver Center
Wed 08:41:14 PM 38.0622 -107.2122 272° West 345 397 38,000  Level Denver Center
Wed 08:42:16 PM 38.0669 -107.3281 273° West 343 395 38,000  Level Denver Center
Wed 08:43:18 PM 38.0725 -107.4642 273° West 347 399 38,000  Level Denver Center
Wed 08:44:20 PM 38.0764 -107.5814 272° West 347 399 38,000  Level Denver Center
Wed 08:45:22 PM 38.0803 -107.7033 272° West 347 399 38,000  Level Denver Center
Wed 08:46:24 PM 38.0853 -107.8403 273° West 347 399 38,000  Level Denver Center
Wed 08:47:26 PM 38.0897 -107.9600 273° West 352 405 38,000  Level Denver Center
Wed 08:48:27 PM 38.0942 -108.0983 272° West 352 405 38,000  Level Denver Center
Wed 08:49:29 PM 38.0978 -108.2181 272° West 353 406 38,000  Level Denver Center
Wed 08:50:31 PM 38.1014 -108.3364 272° West 351 404 38,000  Level Denver Center
Wed 08:51:33 PM 38.1053 -108.4767 272° West 354 407 38,000  Level Denver Center
Wed 08:52:34 PM 38.1089 -108.5992 272° West 360 414 38,000  Level Denver Center
Wed 08:53:36 PM 38.1131 -108.7411 272° West 360 414 38,000  Level Denver Center
Wed 08:54:50 PM 38.1153 -108.8586 271° West 352 405 38,000  Level Denver Center
Wed 08:56:04 PM 38.1200 -109.0197 272° West 357 411 38,000  Level Denver Center
Wed 08:57:06 PM 38.1233 -109.1836 272° West 362 417 38,000  Level Denver Center
Wed 08:58:08 PM 38.1258 -109.3031 272° West 357 411 38,000  Level Denver Center
Wed 08:59:10 PM 38.1286 -109.4256 272° West 362 417 38,000  Level Denver Center
Wed 09:00:11 PM 38.1317 -109.5683 272° West 361 415 38,000  Level Denver Center
Wed 09:01:13 PM 38.1333 -109.6914 271° West 363 418 38,000  Level Denver Center
Wed 09:02:15 PM 38.1364 -109.8333 272° West 362 417 38,000  Level Denver Center
Wed 09:03:17 PM 38.1389 -109.9533 272° West 357 411 38,000  Level Denver Center
Wed 09:04:18 PM 38.1400 -110.0925 271° West 354 407 38,000  Level Denver Center
Wed 09:05:20 PM 38.1422 -110.2139 271° West 358 412 38,000  Level Denver Center
Wed 09:06:22 PM 38.1439 -110.3361 271° West 360 414 38,000  Level Denver Center
Wed 09:07:23 PM 38.1458 -110.4786 271° West 361 415 38,000  Level Denver Center
Wed 09:08:25 PM 38.1469 -110.6022 271° West 364 419 38,000  Level Denver Center
Wed 09:09:27 PM 38.1483 -110.7478 271° West 369 425 38,000  Level Denver Center
Wed 09:10:29 PM 38.1481 -110.8736 270° West 371 427 38,000  Level Denver Center
Wed 09:11:38 PM 38.1550 -111.0281 273° West 372 428 38,000  Level Salt Lake Center
Wed 09:12:39 PM 38.1628 -111.1589 274° West 372 428 38,000  Level Salt Lake Center
Wed 09:13:41 PM 38.1706 -111.2903 274° West 374 430 38,000  Level Salt Lake Center
Wed 09:14:42 PM 38.1775 -111.4228 274° West 376 433 38,000  Level Salt Lake Center
Wed 09:15:44 PM 38.1847 -111.5556 274° West 377 434 38,000  Level Salt Lake Center
Wed 09:16:45 PM 38.1931 -111.7175 274° West 383 441 38,000  Level Salt Lake Center
Wed 09:17:47 PM 38.1989 -111.8508 273° West 381 438 38,000  Level Salt Lake Center
Wed 09:18:48 PM 38.2053 -111.9856 273° West 382 440 38,000  Level Salt Lake Center
Wed 09:19:50 PM 38.2122 -112.1203 274° West 383 441 38,000  Level Salt Lake Center
Wed 09:20:52 PM 38.2175 -112.2525 273° West 378 435 38,000  Level Salt Lake Center
Wed 09:21:53 PM 38.2242 -112.3861 274° West 379 436 38,000  Level Salt Lake Center
Wed 09:22:55 PM 38.2300 -112.5172 273° West 375 432 38,000  Level Salt Lake Center
Wed 09:23:56 PM 38.2369 -112.6747 273° West 374 430 38,000  Level Salt Lake Center
Wed 09:24:58 PM 38.2411 -112.8061 272° West 374 430 38,000  Level Salt Lake Center
Wed 09:25:59 PM 38.2475 -112.9378 274° West 376 433 38,000  Level Salt Lake Center
Wed 09:27:01 PM 38.2525 -113.0708 273° West 378 435 38,000  Level Salt Lake Center
Wed 09:28:02 PM 38.2581 -113.2036 273° West 379 436 38,000  Level Salt Lake Center
Wed 09:30:05 PM 38.2675 -113.4733 273° West 384 442 38,000  Level Salt Lake Center
Wed 09:31:06 PM 38.2736 -113.6383 273° West 391 450 38,000  Level Salt Lake Center
Wed 09:32:08 PM 38.2775 -113.7756 272° West 390 449 38,000  Level Salt Lake Center
Wed 09:33:09 PM 38.2819 -113.9089 272° West 382 440 38,000 -98 Level Salt Lake Center
Wed 09:34:11 PM 38.2867 -114.0450 273° West 385 443 37,800 -581 Descending Salt Lake Center
Wed 09:35:13 PM 38.2908 -114.1825 272° West 388 447 36,800 -927 Descending Salt Lake Center
Wed 09:36:14 PM 38.2939 -114.3211 272° West 393 452 35,900 -927 Descending Salt Lake Center
Wed 09:37:16 PM 38.2975 -114.4583 272° West 390 449 34,900 -927 Descending Salt Lake Center
Wed 09:38:17 PM 38.3008 -114.6278 271° West 401 461 34,000 -439 Descending Salt Lake Center
Wed 09:39:19 PM 38.3050 -114.7700 272° West 404 465 34,000  Level Salt Lake Center
Wed 09:40:20 PM 38.3078 -114.9094 271° West 396 456 34,000  Level Salt Lake Center
Wed 09:41:22 PM 38.3122 -115.0475 272° West 392 451 34,000  Level Salt Lake Center
Wed 09:42:23 PM 38.3139 -115.1864 271° West 394 453 34,000  Level Salt Lake Center
Wed 09:43:25 PM 38.3178 -115.3367 272° West 394 453 34,000  Level Salt Lake Center
Wed 09:44:26 PM 38.3194 -115.4589 271° West 395 455 34,000  Level Salt Lake Center
Wed 09:45:28 PM 38.3231 -115.6269 272° West 395 455 34,000  Level Salt Lake Center
Wed 09:46:29 PM 38.3244 -115.7669 271° West 396 456 34,000  Level Salt Lake Center
Wed 09:47:31 PM 38.3267 -115.9075 271° West 397 457 34,000  Level Salt Lake Center
Wed 09:48:32 PM 38.3292 -116.0500 271° West 402 463 34,000  Level Salt Lake Center
Wed 09:49:34 PM 38.3294 -116.1914 270° West 401 461 34,000  Level Salt Lake Center
Wed 09:50:35 PM 38.3308 -116.3325 271° West 399 459 34,000  Level Salt Lake Center
Wed 09:51:37 PM 38.3019 -116.4678 255° West 395 455 34,000  Level Salt Lake Center
Wed 09:52:38 PM 38.2717 -116.6042 254° West 398 458 34,000  Level Salt Lake Center
Wed 09:53:45 PM 38.2358 -116.7667 254° West 398 458 34,000  Level Oakland Center
Wed 09:54:46 PM 38.2139 -116.9067 259° West 404 465 34,000  Level Oakland Center
Wed 09:55:48 PM 38.1964 -117.0481 261° West 407 468 34,000  Level Oakland Center
Wed 09:56:49 PM 38.1758 -117.2064 261° West 405 466 34,000  Level Oakland Center
Wed 09:57:50 PM 38.1572 -117.3506 261° West 410 472 34,000  Level Oakland Center
Wed 09:58:51 PM 38.1397 -117.4875 261° West 403 464 34,000  Level Oakland Center
Wed 09:59:52 PM 38.1206 -117.6278 260° West 402 463 34,000  Level Oakland Center
Wed 10:00:53 PM 38.1019 -117.7689 261° West 405 466 34,000  Level Oakland Center
Wed 10:01:54 PM 38.0825 -117.9092 260° West 404 465 34,000  Level Oakland Center
Wed 10:02:56 PM 38.0628 -118.0500 260° West 404 465 34,000  Level Oakland Center
Wed 10:03:57 PM 38.0439 -118.1911 260° West 405 466 34,000  Level Oakland Center
Wed 10:04:58 PM 38.0233 -118.3322 260° West 406 467 34,000  Level Oakland Center
Wed 10:05:59 PM 37.9997 -118.5036 260° West 410 472 34,000  Level Oakland Center
Wed 10:07:00 PM 37.9792 -118.6453 260° West 410 472 34,000  Level Oakland Center
Wed 10:08:01 PM 37.9594 -118.7867 260° West 408 470 34,000  Level Oakland Center
Wed 10:09:02 PM 37.9411 -118.9297 261° West 410 472 34,000  Level Oakland Center
Wed 10:10:03 PM 37.9197 -119.0717 259° West 410 472 34,000  Level Oakland Center
Wed 10:11:04 PM 37.8964 -119.2244 259° West 412 474 34,000  Level Oakland Center
Wed 10:12:05 PM 37.8761 -119.3664 260° West 410 472 34,000  Level Oakland Center
Wed 10:13:07 PM 37.8533 -119.5100 259° West 415 478 34,000  Level Oakland Center
Wed 10:14:08 PM 37.8325 -119.6508 259° West 410 472 34,000  Level Oakland Center
Wed 10:15:09 PM 37.8108 -119.7942 259° West 414 476 34,000 -98 Level Oakland Center
Wed 10:16:10 PM 37.7894 -119.9364 259° West 413 475 33,800 -1,033 Descending Oakland Center
Wed 10:17:11 PM 37.7683 -120.0747 259° West 404 465 31,900 -1,869 Descending Oakland Center
Wed 10:18:12 PM 37.7467 -120.2092 259° West 394 453 30,000 -1,869 Descending Oakland Center
Wed 10:19:13 PM 37.7256 -120.3400 259° West 383 441 28,100 -1,820 Descending Oakland Center
Wed 10:20:14 PM 37.7058 -120.4706 259° West 380 437 26,300 -1,770 Descending Oakland Center
Wed 10:21:15 PM 37.6856 -120.5978 259° West 373 429 24,500 -1,869 Descending Oakland Center
Wed 10:22:16 PM 37.6658 -120.7228 259° West 364 419 22,500 -2,165 Descending Oakland Center
Wed 10:22:52 PM 37.6500 -120.8167 258° West 361 415 21,000 -2,125 Descending Northern Cal TRACON
Wed 10:23:52 PM 37.6333 -120.9333 260° West 363 418 19,100 -1,700 Descending Northern Cal TRACON
Wed 10:24:52 PM 37.6167 -121.0500 260° West 357 411 17,600 -1,526 Descending Northern Cal TRACON
Wed 10:25:46 PM 37.6000 -121.1667 260° West 343 395 16,200 -1,789 Descending Northern Cal TRACON
Wed 10:26:46 PM 37.5833 -121.2833 260° West 335 386 14,200 -1,850 Descending Northern Cal TRACON
Wed 10:27:46 PM 37.5833 -121.4000 270° West 324 373 12,500 -1,381 Descending Northern Cal TRACON
Wed 10:28:52 PM 37.5667 -121.5167 260° West 311 358 11,300 -714 Descending Northern Cal TRACON
Wed 10:29:52 PM 37.5500 -121.6167 258° West 312 359 11,000 -895 Descending Northern Cal TRACON
Wed 10:30:46 PM 37.5333 -121.7167 258° West 305 351 9,600 -1,526 Descending Northern Cal TRACON
Wed 10:31:46 PM 37.5000 -121.8167 247° West 293 337 8,100 -1,000 Descending Northern Cal TRACON
Wed 10:32:52 PM 37.4833 -121.9000 256° West 256 295 7,500 -900 Descending Northern Cal TRACON
Wed 10:33:46 PM 37.5000 -121.9833 284° West 245 282 6,300 -1,263 Descending Northern Cal TRACON
Wed 10:34:46 PM 37.5333 -122.0667 297° West 237 273 5,100 -1,095 Descending Northern Cal TRACON
Wed 10:35:52 PM 37.5333 -122.1500 270° West 213 245 4,000 -865 Descending Northern Cal TRACON
Wed 10:36:30 PM 37.5408 -122.1739 292° West 213 245 3,600 -1,091 Descending Oakland Center
Wed 10:37:31 PM 37.5583 -122.2353 290° West 199 229 2,200 -1,180 Descending Oakland Center
Wed 10:38:32 PM 37.5822 -122.2906 299° West 189 217 1,200 -885 Descending Oakland Center
Wed 10:39:33 PM 37.6006 -122.3350 298° West 165 190 400 -541 Descending Oakland Center
Wed 10:40:34 PM 37.6206 -122.3839 297° West 155 178 100 -295 Descending Oakland Center
Wed 10:42:00 PM 37.6167 -122.3667 90° East  Level FlightAware Approximate
Wed 10:49:00 PM 37.6191 -122.3752 90° East  Level Estimated

Login

Don't have an account? Register now (free) for customized features, flight alerts, and more!